Allin, Illinois
Current Conditions -  °F | °C
As of 5:56 PM on Friday 24 Oct 2014 (Local Time) from KBMI Reporting Station
Haze Haze  
Wind Chill: 60°   Ceiling: Unl
Heat Index: 60°   Visibility: 6mi
Dew Point: 52°   Wind: 7mph
Humidity: 75%   Direction: 210°SSW
Pressure: 30.01"   Gusts: NA
Location:  40.4427°N, 89.2086°W
Report Text: KBMI 242256Z 21006KT 6SM HZ CLR 16/11 A3001 RMK AO2 T01550111 SLP161
Loading
Personal Weather Stations






























Interactive Weather Map
Tropical Storm Tracking
New forecast layout! Learn more

10-Day Weather Forecast

Advertisements
Track Severe Weather on mobile